Time;durP1;ratioP1;P1;durP2;ratioP2;P2;SDS_P1;SDS_P2;PMS_P1;PMS_P2;Temp;Humidity;BMP_temperature;BMP_pressure;BME280_temperature;BME280_humidity;BME280_pressure;Samples;Min_cycle;Max_cycle;Signal;HPM_P1;HPM_P2
2022/09/17 00:00:20;;;;;;;6.13;1.63;;;;;;;12.14;90.30;96314.59;4907789;29;20211;-56
2022/09/17 00:02:51;;;;;;;1.53;1.43;;;;;;;12.11;89.82;96314.94;4907730;29;20272;-55
2022/09/17 00:05:17;;;;;;;3.93;1.40;;;;;;;11.98;92.59;96321.50;4891656;29;20216;-56
2022/09/17 00:07:44;;;;;;;4.50;1.43;;;;;;;11.98;91.19;96321.50;4906786;29;20218;-57
2022/09/17 00:10:11;;;;;;;2.00;1.33;;;;;;;11.94;90.83;96317.50;4907026;29;20224;-56
2022/09/17 00:12:37;;;;;;;3.30;1.90;;;;;;;11.93;90.29;96318.50;4907164;29;20303;-57
2022/09/17 00:15:04;;;;;;;2.97;1.53;;;;;;;11.88;91.13;96315.50;4906435;29;20232;-57
2022/09/17 00:17:32;;;;;;;2.00;1.27;;;;;;;11.97;90.20;96317.19;4906614;29;20292;-56
2022/09/17 00:19:59;;;;;;;2.37;1.23;;;;;;;11.92;91.11;96322.13;4905975;29;20657;-57
2022/09/17 00:22:26;;;;;;;2.23;1.30;;;;;;;11.88;91.39;96320.78;4906772;29;20209;-57
2022/09/17 00:24:54;;;;;;;2.17;1.37;;;;;;;11.88;92.13;96326.09;4906456;29;20523;-56
2022/09/17 00:27:20;;;;;;;1.37;1.20;;;;;;;11.84;92.55;96318.59;4906441;29;20213;-57
2022/09/17 00:29:48;;;;;;;2.63;1.43;;;;;;;11.80;91.80;96327.84;4906488;29;20560;-54
2022/09/17 00:32:15;;;;;;;2.10;1.40;;;;;;;11.88;90.67;96326.09;4905972;29;20728;-57
2022/09/17 00:34:45;;;;;;;1.40;1.30;;;;;;;11.83;91.53;96330.22;4905986;29;20637;-56
2022/09/17 00:37:12;;;;;;;2.03;1.40;;;;;;;11.85;91.37;96333.53;4906070;29;20700;-56
2022/09/17 00:39:38;;;;;;;1.87;1.23;;;;;;;11.88;90.95;96331.38;4906532;29;20204;-56
2022/09/17 00:42:09;;;;;;;1.67;1.57;;;;;;;11.86;91.38;96337.84;4906111;29;20203;-57
2022/09/17 00:44:47;;;;;;;1.57;1.23;;;;;;;11.87;91.09;96336.84;4905971;29;20240;-56
2022/09/17 00:47:23;;;;;;;1.53;1.20;;;;;;;11.82;90.76;96339.16;4905928;29;20680;-56
2022/09/17 00:49:55;;;;;;;3.57;1.40;;;;;;;11.83;89.79;96338.97;4905801;29;20218;-56
2022/09/17 00:52:25;;;;;;;1.30;1.20;;;;;;;11.82;89.18;96341.78;4906523;29;20197;-55
2022/09/17 00:54:55;;;;;;;1.77;1.13;;;;;;;11.93;89.79;96350.31;4891626;29;20276;-57
2022/09/17 00:57:22;;;;;;;1.40;1.30;;;;;;;11.92;87.88;96355.75;4907238;29;20287;-57
2022/09/17 00:59:49;;;;;;;2.73;1.20;;;;;;;11.94;88.44;96354.59;4906408;29;20291;-54
2022/09/17 01:02:16;;;;;;;1.63;1.00;;;;;;;11.91;89.37;96357.56;4906617;29;20228;-55
2022/09/17 01:04:42;;;;;;;5.30;1.33;;;;;;;11.89;89.43;96358.72;4906434;29;20232;-56
2022/09/17 01:07:23;;;;;;;1.30;1.20;;;;;;;11.85;89.23;96358.22;4906557;29;20205;-57
2022/09/17 01:09:54;;;;;;;1.57;1.13;;;;;;;11.93;87.91;96352.97;4906330;29;20597;-56
2022/09/17 01:12:36;;;;;;;3.27;1.50;;;;;;;11.90;88.15;96355.09;4906312;29;20240;-56
2022/09/17 01:15:15;;;;;;;1.40;1.23;;;;;;;11.91;88.09;96351.44;4906381;29;20271;-55
2022/09/17 01:17:44;;;;;;;3.53;1.30;;;;;;;11.90;87.71;96340.00;4889376;29;20613;-56
2022/09/17 01:20:47;;;;;;;1.47;1.23;;;;;;;11.88;88.04;96344.63;4906142;29;20269;-56
2022/09/17 01:23:32;;;;;;;2.10;1.30;;;;;;;11.89;87.42;96348.97;4904484;29;20220;-56
2022/09/17 01:26:11;;;;;;;1.23;1.10;;;;;;;11.84;88.43;96348.59;4906937;29;20267;-55
2022/09/17 01:28:42;;;;;;;1.30;1.17;;;;;;;11.83;88.82;96348.75;4906437;29;20191;-57
2022/09/17 01:31:19;;;;;;;2.90;1.50;;;;;;;11.76;89.02;96353.03;4907921;29;20224;-55
2022/09/17 01:33:53;;;;;;;1.87;1.40;;;;;;;11.76;89.81;96361.78;4907333;29;20204;-56
2022/09/17 01:36:30;;;;;;;1.43;1.33;;;;;;;11.66;90.56;96357.56;4907963;29;20290;-56
2022/09/17 01:39:03;;;;;;;3.10;1.50;;;;;;;11.66;94.45;96355.75;4906037;29;20267;-55
2022/09/17 01:41:33;;;;;;;1.73;0.90;;;;;;;11.69;91.55;96360.72;4905972;29;20232;-56
2022/09/17 01:44:06;;;;;;;1.90;1.37;;;;;;;11.77;89.81;96360.81;4905865;29;20315;-56
2022/09/17 01:46:39;;;;;;;1.10;1.10;;;;;;;11.69;89.75;96362.56;4905804;29;20288;-57
2022/09/17 01:49:06;;;;;;;2.87;1.30;;;;;;;11.68;90.05;96355.59;4906455;29;20574;-57
2022/09/17 01:51:37;;;;;;;1.20;1.17;;;;;;;11.64;90.01;96365.66;4907256;29;20292;-55
2022/09/17 01:54:06;;;;;;;2.03;1.57;;;;;;;11.68;89.87;96359.06;4908015;29;20232;-57
2022/09/17 01:56:37;;;;;;;2.77;1.20;;;;;;;11.76;88.59;96364.44;4906985;29;20299;-57
2022/09/17 01:59:07;;;;;;;3.90;1.40;;;;;;;11.71;88.80;96372.03;4907829;29;20624;-56
2022/09/17 02:01:37;;;;;;;1.47;1.27;;;;;;;11.66;89.21;96363.69;4907203;29;20678;-56
2022/09/17 02:04:08;;;;;;;2.60;1.47;;;;;;;11.60;90.20;96368.78;4908096;29;20226;-57
2022/09/17 02:06:38;;;;;;;3.17;1.80;;;;;;;11.57;90.19;96364.63;4906808;29;20201;-56
2022/09/17 02:09:08;;;;;;;2.50;1.50;;;;;;;11.58;89.95;96374.25;4908843;29;20295;-55
2022/09/17 02:11:35;;;;;;;2.73;1.30;;;;;;;11.61;89.69;96371.28;4910507;29;20377;-56
2022/09/17 02:14:06;;;;;;;2.73;1.30;;;;;;;11.53;92.76;96373.88;4910005;29;20540;-57
2022/09/17 02:16:36;;;;;;;1.77;1.50;;;;;;;11.65;89.35;96367.34;4909765;29;20229;-57
2022/09/17 02:19:05;;;;;;;3.27;1.53;;;;;;;11.62;88.48;96374.75;4911031;29;20299;-56
2022/09/17 02:21:35;;;;;;;2.43;1.47;;;;;;;11.64;89.11;96365.66;4909944;29;20234;-55
2022/09/17 02:24:07;;;;;;;1.50;1.50;;;;;;;11.56;90.02;96360.31;4910187;29;20291;-56
2022/09/17 02:26:35;;;;;;;2.53;1.57;;;;;;;11.54;89.90;96364.94;4912505;29;20240;-56
2022/09/17 02:29:06;;;;;;;3.60;1.70;;;;;;;11.55;89.67;96369.22;4914131;29;20212;-57
2022/09/17 02:31:32;;;;;;;1.30;1.23;;;;;;;11.56;88.39;96368.25;4916022;29;20618;-56
2022/09/17 02:34:03;;;;;;;1.97;1.43;;;;;;;11.49;89.27;96359.28;4918832;29;20236;-56
2022/09/17 02:36:31;;;;;;;1.67;1.57;;;;;;;11.49;88.94;96361.91;4919738;29;20208;-55
2022/09/17 02:39:00;;;;;;;2.17;1.67;;;;;;;11.38;89.56;96352.41;4927803;29;20208;-55
2022/09/17 02:41:36;;;;;;;2.40;1.67;;;;;;;11.34;90.26;96342.28;4926138;29;20192;-54
2022/09/17 02:44:10;;;;;;;3.73;1.97;;;;;;;11.29;90.79;96363.94;4924645;29;20263;-57
2022/09/17 02:46:54;;;;;;;1.93;1.70;;;;;;;11.29;90.93;96365.75;4925030;29;20203;-54
2022/09/17 02:49:32;;;;;;;2.70;1.80;;;;;;;11.27;90.59;96367.72;4924784;29;20208;-55
2022/09/17 02:52:07;;;;;;;5.57;1.73;;;;;;;11.24;90.53;96368.03;4913892;29;20514;-57
2022/09/17 02:54:41;;;;;;;2.53;1.80;;;;;;;11.21;90.89;96373.63;4910587;29;20300;-56
2022/09/17 02:57:15;;;;;;;1.63;1.53;;;;;;;11.10;91.93;96381.81;4909254;29;20853;-55
2022/09/17 02:59:47;;;;;;;3.00;1.80;;;;;;;11.04;92.15;96375.31;4909810;29;20197;-56
2022/09/17 03:02:18;;;;;;;2.17;1.97;;;;;;;11.03;92.97;96391.34;4910639;29;20212;-56
2022/09/17 03:04:48;;;;;;;2.07;1.87;;;;;;;10.93;93.54;96386.97;4909442;29;20287;-56
2022/09/17 03:07:14;;;;;;;2.70;2.00;;;;;;;10.95;93.75;96395.56;4909003;29;20223;-57
2022/09/17 03:09:42;;;;;;;2.30;2.07;;;;;;;10.94;94.06;96393.09;4908095;29;20598;-55
2022/09/17 03:12:09;;;;;;;2.73;1.90;;;;;;;10.86;94.62;96396.50;4908352;29;20220;-55
2022/09/17 03:14:36;;;;;;;2.13;1.90;;;;;;;10.79;95.21;96390.13;4908105;29;20605;-56
2022/09/17 03:17:02;;;;;;;2.67;2.03;;;;;;;10.77;95.02;96386.00;4908793;29;20295;-55
2022/09/17 03:19:29;;;;;;;2.90;2.10;;;;;;;10.74;95.42;96381.81;4909771;29;20291;-57
2022/09/17 03:21:57;;;;;;;2.23;1.87;;;;;;;10.71;95.00;96379.47;4907924;29;20223;-58
2022/09/17 03:24:24;;;;;;;1.70;1.60;;;;;;;10.72;94.34;96381.13;4908090;29;20240;-56
2022/09/17 03:26:51;;;;;;;3.67;1.80;;;;;;;10.63;95.17;96389.94;4907922;29;20658;-57
2022/09/17 03:29:18;;;;;;;1.83;1.73;;;;;;;10.57;99.81;96385.28;4907774;29;20661;-56
2022/09/17 03:31:45;;;;;;;3.27;1.67;;;;;;;10.54;99.68;96401.44;4908646;29;20671;-55
2022/09/17 03:34:11;;;;;;;2.57;1.50;;;;;;;10.51;100.00;96398.25;4908224;29;20354;-56
2022/09/17 03:36:38;;;;;;;2.67;1.97;;;;;;;10.46;100.00;96394.25;4908022;29;20948;-57
2022/09/17 03:39:06;;;;;;;2.63;1.83;;;;;;;10.49;100.00;96387.81;4907567;29;20205;-56
2022/09/17 03:41:33;;;;;;;3.10;1.77;;;;;;;10.52;100.00;96399.94;4908752;29;20290;-57
2022/09/17 03:43:59;;;;;;;2.03;1.80;;;;;;;10.48;100.00;96396.75;4906454;29;20331;-55
2022/09/17 03:46:26;;;;;;;1.87;1.70;;;;;;;10.46;100.00;96398.69;4907477;29;20279;-57
2022/09/17 03:48:53;;;;;;;1.57;1.40;;;;;;;10.46;99.58;96404.81;4907329;29;20295;-57
2022/09/17 03:51:20;;;;;;;2.67;1.60;;;;;;;10.46;100.00;96401.34;4907973;29;20322;-57
2022/09/17 03:53:46;;;;;;;2.00;1.50;;;;;;;10.45;99.78;96404.97;4908094;29;20687;-56
2022/09/17 03:56:16;;;;;;;3.13;1.50;;;;;;;10.40;98.34;96407.22;4909052;29;20231;-56
2022/09/17 03:58:43;;;;;;;2.60;1.67;;;;;;;10.32;98.84;96407.97;4908418;29;20200;-55
2022/09/17 04:01:10;;;;;;;2.03;1.53;;;;;;;10.38;97.65;96409.19;4907401;29;20303;-57
2022/09/17 04:03:36;;;;;;;1.73;1.60;;;;;;;10.32;97.24;96421.19;4907096;29;20299;-57
2022/09/17 04:06:05;;;;;;;3.90;1.73;;;;;;;10.34;96.55;96421.03;4907298;29;20205;-57
2022/09/17 04:08:32;;;;;;;2.77;1.40;;;;;;;10.29;100.00;96418.00;4905498;29;20211;-56
2022/09/17 04:10:59;;;;;;;1.80;1.70;;;;;;;10.22;99.46;96424.84;4907446;29;20556;-57
2022/09/17 04:13:27;;;;;;;2.90;1.53;;;;;;;10.24;98.38;96428.16;4908143;29;20304;-56
2022/09/17 04:15:54;;;;;;;1.77;1.33;;;;;;;10.19;97.97;96435.72;4908229;29;20295;-56
2022/09/17 04:18:20;;;;;;;2.70;1.90;;;;;;;10.15;100.00;96436.97;4890871;29;20296;-57
2022/09/17 04:20:47;;;;;;;2.53;1.73;;;;;;;10.12;100.00;96442.50;4907058;29;20232;-56
2022/09/17 04:23:14;;;;;;;2.13;1.70;;;;;;;10.12;100.00;96440.72;4907108;29;20236;-57
2022/09/17 04:25:41;;;;;;;1.57;1.20;;;;;;;10.19;99.04;96444.47;4906243;29;20704;-56
2022/09/17 04:28:09;;;;;;;2.50;1.60;;;;;;;10.17;99.19;96450.84;4907452;29;20251;-56
2022/09/17 04:30:38;;;;;;;2.77;1.60;;;;;;;10.10;99.85;96449.75;4907174;29;20235;-57
2022/09/17 04:33:05;;;;;;;1.40;1.30;;;;;;;10.14;99.59;96456.41;4908038;29;20223;-57
2022/09/17 04:35:31;;;;;;;1.47;1.37;;;;;;;10.27;98.37;96456.97;4907537;29;20247;-55
2022/09/17 04:37:58;;;;;;;3.43;1.47;;;;;;;10.20;99.00;96455.88;4906948;29;20207;-56
2022/09/17 04:40:26;;;;;;;1.27;1.17;;;;;;;10.28;100.00;96456.78;4907470;29;20210;-56
2022/09/17 04:42:53;;;;;;;5.60;1.53;;;;;;;10.32;97.75;96455.53;4907102;29;20311;-55
2022/09/17 04:45:20;;;;;;;2.17;1.53;;;;;;;10.38;96.91;96454.13;4908090;29;21438;-56
2022/09/17 04:47:49;;;;;;;3.03;1.40;;;;;;;10.36;97.74;96456.06;4907550;29;20294;-56
2022/09/17 04:50:17;;;;;;;2.47;1.13;;;;;;;10.48;95.80;96457.56;4907089;29;20208;-56
2022/09/17 04:52:44;;;;;;;1.60;1.40;;;;;;;10.49;95.14;96461.84;4906736;29;20308;-55
2022/09/17 04:55:11;;;;;;;2.87;1.30;;;;;;;10.54;93.70;96458.78;4906777;29;20203;-55
2022/09/17 04:57:38;;;;;;;1.20;1.20;;;;;;;10.48;96.63;96455.75;4905906;29;20230;-56
2022/09/17 05:00:06;;;;;;;2.23;1.50;;;;;;;10.42;96.99;96460.75;4905654;29;20219;-56
2022/09/17 05:02:33;;;;;;;1.40;1.30;;;;;;;10.40;97.61;96457.44;4905982;29;20208;-56
2022/09/17 05:05:00;;;;;;;2.70;1.40;;;;;;;10.43;96.51;96462.44;4905415;29;20295;-56
2022/09/17 05:07:27;;;;;;;1.50;1.23;;;;;;;10.36;95.31;96461.34;4905990;29;20648;-56
2022/09/17 05:09:54;;;;;;;2.10;1.20;;;;;;;10.38;94.37;96464.72;4905877;29;20303;-56
2022/09/17 05:12:20;;;;;;;1.20;1.10;;;;;;;10.39;94.55;96467.19;4905664;29;20232;-56
2022/09/17 05:14:47;;;;;;;3.23;1.73;;;;;;;10.28;94.98;96472.66;4905970;29;20216;-56
2022/09/17 05:17:14;;;;;;;1.30;1.20;;;;;;;10.19;95.63;96480.63;4905459;29;20253;-56
2022/09/17 05:19:40;;;;;;;1.57;1.30;;;;;;;10.22;95.43;96481.16;4905538;29;20196;-56
2022/09/17 05:22:08;;;;;;;1.40;1.27;;;;;;;10.10;97.67;96478.81;4905449;29;20223;-57
2022/09/17 05:24:38;;;;;;;1.80;1.17;;;;;;;9.99;100.00;96480.66;4905225;29;20648;-56
2022/09/17 05:27:05;;;;;;;1.80;1.33;;;;;;;9.93;98.73;96486.50;4905776;29;20204;-57
2022/09/17 05:29:31;;;;;;;1.30;1.20;;;;;;;9.96;97.39;96485.38;4905400;29;20217;-56
2022/09/17 05:31:58;;;;;;;5.50;1.40;;;;;;;9.89;98.88;96487.75;4905553;29;20311;-57
2022/09/17 05:34:25;;;;;;;2.77;1.40;;;;;;;9.93;97.89;96489.16;4905261;29;20303;-56
2022/09/17 05:36:52;;;;;;;3.83;1.67;;;;;;;9.94;97.46;96488.19;4905599;29;20612;-56
2022/09/17 05:39:24;;;;;;;1.33;1.20;;;;;;;9.96;98.06;96494.13;4905061;29;20775;-57
2022/09/17 05:41:51;;;;;;;2.23;1.27;;;;;;;9.94;98.09;96493.47;4905438;29;20197;-56
2022/09/17 05:44:17;;;;;;;2.87;1.37;;;;;;;9.93;97.42;96486.50;4907270;29;20285;-55
2022/09/17 05:46:44;;;;;;;2.47;1.63;;;;;;;9.95;98.72;96496.94;4909486;29;20218;-57
2022/09/17 05:49:11;;;;;;;4.20;1.50;;;;;;;10.02;96.82;96497.19;4908760;29;20634;-57
2022/09/17 05:51:38;;;;;;;1.30;1.00;;;;;;;10.13;95.57;96502.31;4909196;29;20238;-55
2022/09/17 05:54:06;;;;;;;1.13;1.00;;;;;;;10.19;95.07;96507.06;4908613;29;20306;-56
2022/09/17 05:56:34;;;;;;;1.80;1.20;;;;;;;10.31;93.96;96511.16;4909179;29;20204;-56
2022/09/17 05:59:01;;;;;;;2.43;1.10;;;;;;;10.31;96.94;96516.44;4909048;29;20224;-56
2022/09/17 06:01:28;;;;;;;1.80;1.03;;;;;;;10.28;95.02;96516.75;4909054;29;20215;-56
2022/09/17 06:03:55;;;;;;;1.40;1.00;;;;;;;10.32;93.13;96515.47;4908374;29;20264;-55
2022/09/17 06:06:21;;;;;;;2.37;1.30;;;;;;;10.39;91.48;96524.50;4908810;29;20207;-56
2022/09/17 06:08:48;;;;;;;2.30;0.83;;;;;;;10.37;91.23;96522.03;4908488;29;20216;-55
2022/09/17 06:11:15;;;;;;;1.33;1.10;;;;;;;10.34;91.75;96524.13;4908621;29;20745;-56
2022/09/17 06:13:43;;;;;;;1.37;1.10;;;;;;;10.47;90.47;96529.91;4909245;29;20295;-56
2022/09/17 06:16:10;;;;;;;2.87;1.13;;;;;;;10.48;90.83;96528.94;4910368;29;20208;-56
2022/09/17 06:18:36;;;;;;;2.73;1.50;;;;;;;10.57;92.21;96530.69;4910314;29;20299;-56
2022/09/17 06:21:04;;;;;;;2.20;1.00;;;;;;;10.62;91.73;96536.41;4908551;29;20723;-57
2022/09/17 06:23:34;;;;;;;4.77;1.30;;;;;;;10.67;90.24;96536.78;4909047;29;20227;-57
2022/09/17 06:26:01;;;;;;;3.47;1.40;;;;;;;10.75;89.68;96542.16;4908519;29;20276;-57
2022/09/17 06:28:28;;;;;;;2.40;1.20;;;;;;;10.73;90.36;96538.84;4908847;29;20220;-56
2022/09/17 06:31:00;;;;;;;3.40;1.50;;;;;;;10.81;90.15;96546.88;4908641;29;20221;-55
2022/09/17 06:33:27;;;;;;;1.53;0.90;;;;;;;10.87;93.01;96541.00;4908866;29;20295;-57
2022/09/17 06:35:58;;;;;;;1.87;0.77;;;;;;;10.90;89.21;96543.34;4908587;29;20219;-57
2022/09/17 06:38:25;;;;;;;2.13;1.13;;;;;;;10.98;89.25;96548.72;4908282;29;20204;-57
2022/09/17 06:40:52;;;;;;;2.93;1.00;;;;;;;10.96;88.89;96550.69;4907767;29;20713;-57
2022/09/17 06:43:18;;;;;;;0.87;0.87;;;;;;;10.89;87.93;96560.19;4908117;29;20231;-55
2022/09/17 06:45:51;;;;;;;1.10;1.10;;;;;;;10.94;87.81;96557.13;4908121;29;20200;-56
2022/09/17 06:48:19;;;;;;;2.20;1.00;;;;;;;10.86;90.33;96560.50;4907771;29;20211;-56
2022/09/17 06:50:46;;;;;;;2.87;1.20;;;;;;;10.91;88.83;96568.00;4908157;29;20288;-56
2022/09/17 06:53:12;;;;;;;2.33;0.93;;;;;;;11.07;88.25;96567.34;4907984;29;20607;-55
2022/09/17 06:55:39;;;;;;;0.90;0.90;;;;;;;11.03;90.45;96564.16;4907034;29;20263;-56
2022/09/17 06:58:06;;;;;;;2.83;2.53;;;;;;;11.18;87.95;96564.50;4907817;29;20306;-56
2022/09/17 07:00:32;;;;;;;1.37;1.27;;;;;;;11.09;86.76;96565.41;4908044;29;20216;-56
2022/09/17 07:03:00;;;;;;;3.07;1.07;;;;;;;11.19;85.83;96566.19;4907354;29;20342;-56
2022/09/17 07:05:30;;;;;;;1.67;1.10;;;;;;;11.08;88.68;96564.56;4907464;29;20300;-55
2022/09/17 07:07:57;;;;;;;2.13;1.10;;;;;;;11.16;93.55;96567.28;4907984;29;20217;-55
2022/09/17 07:10:25;;;;;;;2.57;0.80;;;;;;;11.07;93.97;96570.84;4907664;29;20295;-56
2022/09/17 07:12:52;;;;;;;2.50;1.00;;;;;;;11.03;91.94;96571.25;4907498;29;20559;-55
2022/09/17 07:15:19;;;;;;;2.07;1.00;;;;;;;10.82;93.38;96574.16;4907632;29;20215;-57
2022/09/17 07:17:46;;;;;;;1.67;1.17;;;;;;;10.71;95.46;96574.34;4907365;29;20212;-56
2022/09/17 07:20:12;;;;;;;2.27;1.03;;;;;;;10.62;95.90;96578.69;4907856;29;20303;-56
2022/09/17 07:22:40;;;;;;;3.80;1.30;;;;;;;10.38;100.00;96576.53;4907303;29;20377;-56
2022/09/17 07:25:08;;;;;;;1.10;1.00;;;;;;;10.42;100.00;96583.19;4907592;29;20219;-57
2022/09/17 07:27:36;;;;;;;1.67;1.10;;;;;;;10.36;100.00;96589.06;4907017;29;20284;-56
2022/09/17 07:30:04;;;;;;;3.27;1.40;;;;;;;10.38;100.00;96591.59;4907686;29;20212;-56
2022/09/17 07:32:31;;;;;;;1.27;1.27;;;;;;;10.42;100.00;96598.22;4907248;29;20231;-56
2022/09/17 07:34:58;;;;;;;1.83;1.20;;;;;;;10.36;100.00;96598.81;4907347;29;20226;-56
2022/09/17 07:37:27;;;;;;;0.90;0.90;;;;;;;10.45;100.00;96597.97;4907548;29;20523;-56
2022/09/17 07:39:55;;;;;;;1.23;1.00;;;;;;;10.52;100.00;96598.22;4907264;29;20238;-56
2022/09/17 07:42:22;;;;;;;1.00;0.90;;;;;;;10.58;100.00;96603.75;4907528;29;20211;-57
2022/09/17 07:44:48;;;;;;;2.00;1.10;;;;;;;10.66;100.00;96600.41;4906772;29;20646;-57
2022/09/17 07:47:15;;;;;;;1.30;1.20;;;;;;;10.70;100.00;96607.88;4907212;29;20669;-57
2022/09/17 07:49:41;;;;;;;4.07;1.30;;;;;;;10.70;100.00;96605.22;4907190;29;20299;-57
2022/09/17 07:52:08;;;;;;;1.63;1.17;;;;;;;10.80;100.00;96610.50;4906701;29;20228;-56
2022/09/17 07:54:36;;;;;;;2.80;1.13;;;;;;;10.82;100.00;96614.66;4907068;29;20335;-57
2022/09/17 07:57:04;;;;;;;3.10;1.40;;;;;;;10.87;100.00;96609.78;4907196;29;20559;-55
2022/09/17 07:59:31;;;;;;;2.50;1.17;;;;;;;10.92;99.83;96622.56;4906654;29;20598;-58
2022/09/17 08:01:57;;;;;;;1.70;1.20;;;;;;;10.94;99.92;96613.53;4907097;29;20315;-56
2022/09/17 08:04:24;;;;;;;1.90;0.93;;;;;;;11.03;98.79;96616.25;4906942;29;20590;-57
2022/09/17 08:06:50;;;;;;;1.30;1.20;;;;;;;11.15;98.92;96617.72;4906275;29;20275;-56
2022/09/17 08:09:17;;;;;;;2.53;1.20;;;;;;;11.08;97.37;96619.31;4906276;29;20648;-56
2022/09/17 08:11:44;;;;;;;1.70;0.80;;;;;;;11.23;97.55;96617.84;4905957;29;20232;-57
2022/09/17 08:14:14;;;;;;;1.27;0.90;;;;;;;11.31;93.63;96617.91;4906561;29;20369;-57
2022/09/17 08:16:41;;;;;;;1.60;1.13;;;;;;;11.36;95.02;96615.66;4906507;29;20216;-57
2022/09/17 08:19:09;;;;;;;0.83;0.83;;;;;;;11.53;93.00;96614.84;4906629;29;20203;-56
2022/09/17 08:21:36;;;;;;;1.00;0.87;;;;;;;11.57;88.78;96618.03;4906531;29;20641;-57
2022/09/17 08:24:03;;;;;;;1.47;0.70;;;;;;;11.58;88.68;96623.19;4906267;29;20250;-57
2022/09/17 08:26:30;;;;;;;1.53;1.10;;;;;;;11.61;87.69;96616.75;4906218;29;20283;-56
2022/09/17 08:28:57;;;;;;;2.37;1.07;;;;;;;11.60;86.74;96623.88;4905972;29;20216;-57
2022/09/17 08:31:27;;;;;;;3.47;1.70;;;;;;;11.58;85.64;96630.31;4906153;29;20236;-56
2022/09/17 08:33:53;;;;;;;1.67;1.27;;;;;;;11.56;88.10;96622.50;4906903;29;20291;-56
2022/09/17 08:36:21;;;;;;;2.17;1.57;;;;;;;11.51;85.62;96624.78;4907410;29;20222;-56
2022/09/17 08:38:48;;;;;;;3.27;2.20;;;;;;;11.48;85.24;96628.53;4907111;29;20205;-56
2022/09/17 08:41:22;;;;;;;1.90;1.80;;;;;;;11.44;90.08;96629.81;4907123;29;20215;-56
2022/09/17 08:43:54;;;;;;;1.87;1.77;;;;;;;11.54;92.38;96632.41;4905718;29;20321;-56
2022/09/17 08:46:21;;;;;;;1.23;1.20;;;;;;;11.48;89.89;96628.53;4906173;29;20303;-57
2022/09/17 08:48:53;;;;;;;2.13;1.40;;;;;;;11.65;90.05;96631.38;4905424;29;20724;-55
2022/09/17 08:51:31;;;;;;;3.90;1.10;;;;;;;11.59;88.08;96632.78;4906375;29;20234;-56
2022/09/17 08:54:01;;;;;;;2.60;1.13;;;;;;;11.76;85.62;96633.84;4906048;29;20204;-56
2022/09/17 08:56:30;;;;;;;1.00;0.97;;;;;;;11.73;85.49;96639.41;4905942;29;20656;-56
2022/09/17 08:59:07;;;;;;;1.10;0.93;;;;;;;11.69;84.29;96635.41;4905668;29;20209;-54
2022/09/17 09:01:37;;;;;;;1.73;0.90;;;;;;;11.61;84.58;96640.59;4905892;29;20295;-55
2022/09/17 09:04:46;;;;;;;1.87;1.13;;;;;;;11.66;85.36;96636.50;4906058;29;20208;-56
2022/09/17 09:07:16;;;;;;;0.63;0.63;;;;;;;11.74;85.98;96630.50;4905808;29;20280;-56
2022/09/17 09:09:46;;;;;;;0.70;0.70;;;;;;;11.96;85.47;96630.91;4905345;29;20533;-56
2022/09/17 09:12:19;;;;;;;1.30;1.00;;;;;;;12.07;85.74;96626.34;4905787;29;20327;-55
2022/09/17 09:14:49;;;;;;;1.60;0.87;;;;;;;12.19;84.27;96619.78;4905618;29;20232;-57
2022/09/17 09:17:17;;;;;;;0.80;0.80;;;;;;;12.36;82.10;96618.97;4905980;29;20226;-57
2022/09/17 09:19:46;;;;;;;0.83;0.80;;;;;;;12.69;81.48;96612.03;4905379;29;20309;-56
2022/09/17 09:22:30;;;;;;;1.23;0.93;;;;;;;12.93;78.68;96617.50;4905344;29;20589;-56
2022/09/17 09:25:06;;;;;;;3.00;0.80;;;;;;;13.25;78.25;96620.31;4905963;29;20238;-55
2022/09/17 09:27:38;;;;;;;1.63;1.00;;;;;;;13.57;75.32;96621.44;4907459;29;20664;-56
2022/09/17 09:30:07;;;;;;;1.23;1.00;;;;;;;13.36;73.29;96628.00;4906989;29;20292;-56
2022/09/17 09:32:46;;;;;;;1.03;0.80;;;;;;;13.38;73.53;96628.69;4906915;29;20223;-56
2022/09/17 09:35:18;;;;;;;1.13;0.70;;;;;;;13.27;75.42;96631.63;4906819;29;20299;-56
2022/09/17 09:37:52;;;;;;;2.10;1.47;;;;;;;13.52;75.11;96627.22;4907174;29;20304;-55
2022/09/17 09:40:26;;;;;;;1.60;0.93;;;;;;;13.56;72.85;96633.88;4905581;29;20263;-56
2022/09/17 09:42:55;;;;;;;1.53;0.77;;;;;;;13.42;69.96;96629.19;4905949;29;20220;-55
2022/09/17 09:45:31;;;;;;;2.10;0.80;;;;;;;13.43;70.94;96628.19;4904950;29;20248;-56
2022/09/17 09:48:01;;;;;;;0.97;0.77;;;;;;;13.45;72.52;96632.34;4906651;29;20286;-56
2022/09/17 09:50:37;;;;;;;0.77;0.60;;;;;;;13.36;71.48;96627.16;4905039;29;20307;-56
2022/09/17 09:53:12;;;;;;;1.73;1.00;;;;;;;13.52;73.94;96621.06;4906099;29;20219;-57
2022/09/17 09:55:58;;;;;;;0.63;0.63;;;;;;;13.52;71.98;96623.75;4906396;29;20298;-56
2022/09/17 09:58:31;;;;;;;5.17;1.23;;;;;;;13.96;69.87;96618.00;4905941;29;20695;-55
2022/09/17 10:00:58;;;;;;;1.47;0.80;;;;;;;14.62;72.71;96621.53;4907125;29;20542;-56
2022/09/17 10:03:30;;;;;;;1.33;0.80;;;;;;;15.00;69.26;96614.63;4906257;29;20275;-57
2022/09/17 10:06:01;;;;;;;0.93;0.43;;;;;;;15.14;66.09;96621.91;4906684;29;20263;-56
2022/09/17 10:08:28;;;;;;;0.60;0.50;;;;;;;15.13;68.31;96622.91;4906885;29;20224;-57
2022/09/17 10:11:00;;;;;;;0.67;0.67;;;;;;;15.31;64.93;96626.16;4906337;29;20287;-56
2022/09/17 10:13:29;;;;;;;0.40;0.40;;;;;;;15.26;64.17;96615.22;4907536;29;20240;-57
2022/09/17 10:15:56;;;;;;;2.83;0.70;;;;;;;14.97;63.18;96615.81;4909221;29;20276;-61
2022/09/17 10:18:24;;;;;;;2.00;0.70;;;;;;;15.50;68.01;96622.28;4907710;29;20272;-56
2022/09/17 10:20:55;;;;;;;0.57;0.50;;;;;;;15.97;63.24;96624.88;4907170;29;20216;-56
2022/09/17 10:23:24;;;;;;;0.80;0.67;;;;;;;16.02;60.10;96627.81;4907276;29;20319;-56
2022/09/17 10:25:54;;;;;;;1.13;0.80;;;;;;;16.06;63.64;96629.13;4909294;29;20299;-56
2022/09/17 10:28:39;;;;;;;1.53;0.80;;;;;;;16.41;62.55;96623.19;4907467;29;20541;-60
2022/09/17 10:31:09;;;;;;;1.05;0.57;;;;;;;16.78;63.28;96631.25;4911479;29;20200;-57
2022/09/17 10:33:39;;;;;;;0.65;0.50;;;;;;;16.99;58.62;96633.19;4909111;29;20224;-56
2022/09/17 10:36:08;;;;;;;1.17;0.65;;;;;;;16.47;60.40;96638.50;4908939;29;20235;-56
2022/09/17 10:38:38;;;;;;;1.37;0.63;;;;;;;16.01;59.55;96632.34;4910236;29;20288;-58
2022/09/17 10:41:16;;;;;;;1.67;0.73;;;;;;;15.66;58.60;96631.03;4910109;29;20228;-57
2022/09/17 10:43:43;;;;;;;1.23;0.70;;;;;;;15.34;60.70;96631.16;4907679;29;20318;-65
2022/09/17 10:46:12;;;;;;;0.57;0.53;;;;;;;15.40;62.91;96633.13;4907799;29;20215;-56
2022/09/17 10:48:43;;;;;;;0.73;0.43;;;;;;;15.43;61.99;96632.78;4908592;29;20314;-57
2022/09/17 10:51:10;;;;;;;1.20;0.50;;;;;;;15.64;62.17;96633.06;4907953;29;20204;-57
2022/09/17 10:54:00;;;;;;;0.47;0.40;;;;;;;15.74;61.57;96625.66;4909198;29;20235;-56
2022/09/17 10:56:30;;;;;;;1.03;0.70;;;;;;;15.44;62.18;96619.28;4909435;29;20262;-55
2022/09/17 10:59:05;;;;;;;1.20;0.60;;;;;;;15.69;61.12;96627.22;4909407;29;20208;-56
2022/09/17 11:01:37;;;;;;;0.70;0.67;;;;;;;15.66;59.53;96627.56;4907461;29;20240;-56
2022/09/17 11:04:22;;;;;;;1.03;0.70;;;;;;;15.92;63.00;96625.38;4907829;29;20306;-57
2022/09/17 11:07:10;;;;;;;0.60;0.57;;;;;;;16.24;62.04;96624.34;4907873;29;20315;-56
2022/09/17 11:09:48;;;;;;;1.10;0.40;;;;;;;16.60;61.07;96614.72;4907124;29;20653;-56
2022/09/17 11:12:24;;;;;;;1.13;0.60;;;;;;;16.43;57.28;96622.03;4907644;29;20283;-56
2022/09/17 11:14:54;;;;;;;1.03;0.60;;;;;;;16.51;58.44;96629.09;4907425;29;20352;-56
2022/09/17 11:17:37;;;;;;;1.07;0.50;;;;;;;16.59;58.76;96626.41;4906657;29;20299;-56
2022/09/17 11:20:07;;;;;;;0.95;0.57;;;;;;;16.48;58.73;96621.47;4907210;29;20294;-56
2022/09/17 11:22:45;;;;;;;0.80;0.50;;;;;;;16.03;57.59;96630.31;4907239;29;20303;-55
2022/09/17 11:25:24;;;;;;;0.90;0.50;;;;;;;15.97;58.99;96627.53;4907512;29;20219;-56
2022/09/17 11:28:01;;;;;;;0.52;0.45;;;;;;;15.71;57.13;96627.84;4907619;29;20239;-56
2022/09/17 11:30:33;;;;;;;1.02;0.50;;;;;;;15.60;59.18;96625.56;4907356;29;20209;-57
2022/09/17 11:33:27;;;;;;;0.80;0.40;;;;;;;15.57;59.02;96625.94;4906881;29;20228;-57
2022/09/17 11:35:59;;;;;;;0.50;0.33;;;;;;;15.68;60.52;96626.38;4906889;29;20258;-56
2022/09/17 11:38:29;;;;;;;1.10;0.70;;;;;;;15.59;58.98;96618.59;4907064;29;20659;-55
2022/09/17 11:41:01;;;;;;;0.90;0.50;;;;;;;15.57;60.20;96624.09;4906657;29;20554;-56
2022/09/17 11:43:30;;;;;;;1.13;0.60;;;;;;;15.55;59.98;96625.28;4906089;29;20240;-56
2022/09/17 11:46:01;;;;;;;0.93;0.50;;;;;;;15.37;62.13;96623.63;4907096;29;20545;-55